createdAt,value
2023-05-21T00:01:19.332Z,8.48
2023-05-21T00:02:49.241Z,9.03
2023-05-21T00:04:13.060Z,8.22
2023-05-21T00:05:49.156Z,9.30
2023-05-21T00:07:23.488Z,9.24
2023-05-21T00:08:45.228Z,8.56
2023-05-21T00:10:30.230Z,9.12
2023-05-21T00:12:05.675Z,9.09
2023-05-21T00:13:39.276Z,8.89
2023-05-21T00:15:15.106Z,8.36
2023-05-21T00:16:44.879Z,8.11
2023-05-21T00:18:18.276Z,8.12
2023-05-21T00:19:49.588Z,7.32
2023-05-21T00:21:42.868Z,7.78
2023-05-21T00:23:18.650Z,7.33
2023-05-21T00:24:54.313Z,7.26
2023-05-21T00:26:39.591Z,7.51
2023-05-21T00:28:12.808Z,6.97
2023-05-21T00:29:37.216Z,6.92
2023-05-21T00:31:10.613Z,7.10
2023-05-21T00:32:46.621Z,7.56
2023-05-21T00:34:08.497Z,7.87
2023-05-21T00:35:38.322Z,7.21
2023-05-21T00:37:02.730Z,7.61
2023-05-21T00:38:39.487Z,7.17
2023-05-21T00:40:25.299Z,6.70
2023-05-21T00:42:00.387Z,7.20
2023-05-21T00:43:26.165Z,6.99
2023-05-21T00:44:58.238Z,7.44
2023-05-21T00:46:31.688Z,7.06
2023-05-21T00:48:04.339Z,7.59
2023-05-21T00:49:38.282Z,7.21
2023-05-21T00:51:11.589Z,7.05
2023-05-21T00:52:58.561Z,6.95
2023-05-21T00:54:20.730Z,6.89
2023-05-21T00:55:55.925Z,6.87
2023-05-21T00:57:31.512Z,7.08
2023-05-21T00:59:22.004Z,6.38
2023-05-21T01:00:59.230Z,7.32
2023-05-21T01:02:34.607Z,6.94
2023-05-21T01:04:29.012Z,6.75
2023-05-21T01:06:02.374Z,6.83
2023-05-21T01:07:34.160Z,7.21
2023-05-21T01:09:18.978Z,6.78
2023-05-21T01:11:04.003Z,7.09
2023-05-21T01:12:48.737Z,7.03
2023-05-21T01:14:22.332Z,7.32
2023-05-21T01:15:59.133Z,7.46
2023-05-21T01:17:24.284Z,6.53
2023-05-21T01:19:05.492Z,7.56
2023-05-21T01:20:43.652Z,7.34
2023-05-21T01:22:19.326Z,7.29
2023-05-21T01:23:55.681Z,6.78
2023-05-21T01:25:28.990Z,6.70
2023-05-21T01:27:17.623Z,7.32
2023-05-21T01:29:03.557Z,7.20
2023-05-21T01:30:59.027Z,7.36
2023-05-21T01:32:35.039Z,7.39
2023-05-21T01:34:08.847Z,7.13
2023-05-21T01:35:43.049Z,7.14
2023-05-21T01:37:12.605Z,7.17
2023-05-21T01:38:34.726Z,6.41
2023-05-21T01:39:56.591Z,6.88
2023-05-21T01:41:32.435Z,7.00
2023-05-21T01:43:19.743Z,6.45
2023-05-21T01:44:53.101Z,6.81
2023-05-21T01:46:33.853Z,6.78
2023-05-21T01:48:09.622Z,6.87
2023-05-21T01:49:41.056Z,6.99
2023-05-21T01:51:26.194Z,7.91
2023-05-21T01:53:14.944Z,7.39
2023-05-21T01:55:06.905Z,6.99
2023-05-21T01:56:45.392Z,6.50
2023-05-21T01:58:22.150Z,7.28
2023-05-21T01:59:55.919Z,6.92
2023-05-21T02:01:30.359Z,6.40
2023-05-21T02:03:06.551Z,7.02
2023-05-21T02:05:00.069Z,6.80
2023-05-21T02:06:45.171Z,7.29
2023-05-21T02:08:31.573Z,7.57
2023-05-21T02:10:01.181Z,7.47
2023-05-21T02:11:32.170Z,7.16
2023-05-21T02:13:05.473Z,7.13
2023-05-21T02:14:39.286Z,6.69
2023-05-21T02:16:26.461Z,6.69
2023-05-21T02:18:07.188Z,7.29
2023-05-21T02:19:45.682Z,6.98
2023-05-21T02:21:30.674Z,6.56
2023-05-21T02:23:20.079Z,7.24
2023-05-21T02:25:00.560Z,6.62
2023-05-21T02:26:36.615Z,6.43
2023-05-21T02:28:11.658Z,7.13
2023-05-21T02:29:44.762Z,7.44
2023-05-21T02:31:22.049Z,7.07
2023-05-21T02:32:55.489Z,6.59
2023-05-21T02:34:43.871Z,6.60
2023-05-21T02:36:08.783Z,6.22
2023-05-21T02:37:49.427Z,6.43
2023-05-21T02:39:20.722Z,6.85
2023-05-21T02:41:08.212Z,6.50
2023-05-21T02:42:42.016Z,7.10
2023-05-21T02:44:23.953Z,6.76
2023-05-21T02:46:06.938Z,6.79
2023-05-21T02:47:42.750Z,6.34
2023-05-21T02:49:17.583Z,6.23
2023-05-21T02:50:58.649Z,6.24
2023-05-21T02:52:28.043Z,6.35
2023-05-21T02:54:04.592Z,6.75
2023-05-21T02:55:38.278Z,6.20
2023-05-21T02:57:12.094Z,6.90
2023-05-21T02:58:46.323Z,5.95
2023-05-21T03:00:19.370Z,6.03
2023-05-21T03:02:05.565Z,6.35
2023-05-21T03:03:41.688Z,5.99
2023-05-21T03:05:15.361Z,5.93
2023-05-21T03:07:00.885Z,6.25
2023-05-21T03:08:34.618Z,5.84
2023-05-21T03:10:10.046Z,6.21
2023-05-21T03:11:45.517Z,6.48
2023-05-21T03:13:31.292Z,5.77
2023-05-21T03:15:11.543Z,6.08
2023-05-21T03:16:53.440Z,6.04
2023-05-21T03:18:36.039Z,5.87
2023-05-21T03:20:21.085Z,6.36
2023-05-21T03:21:55.973Z,6.13
2023-05-21T03:23:30.076Z,6.23
2023-05-21T03:25:07.281Z,5.99
2023-05-21T03:26:52.459Z,6.59
2023-05-21T03:28:37.807Z,6.32
2023-05-21T03:30:19.435Z,6.45
2023-05-21T03:32:09.508Z,6.43
2023-05-21T03:33:45.772Z,5.99
2023-05-21T03:35:37.078Z,6.62
2023-05-21T03:37:01.665Z,6.24
2023-05-21T03:38:37.118Z,6.03
2023-05-21T03:40:24.432Z,6.38
2023-05-21T03:42:12.338Z,6.44
2023-05-21T03:43:42.513Z,6.43
2023-05-21T03:45:12.144Z,6.47
2023-05-21T03:47:35.604Z,6.79
2023-05-21T03:49:02.777Z,6.12
2023-05-21T03:50:48.343Z,6.65
2023-05-21T03:52:39.046Z,6.39
2023-05-21T03:54:12.178Z,6.38
2023-05-21T03:56:00.074Z,6.39
2023-05-21T03:57:45.443Z,6.22
2023-05-21T03:59:33.885Z,5.96
2023-05-21T04:01:22.488Z,6.38
2023-05-21T04:02:54.694Z,6.63
2023-05-21T04:04:29.538Z,6.02
2023-05-21T04:06:02.798Z,5.73
2023-05-21T04:07:49.928Z,5.88
2023-05-21T04:09:31.167Z,6.23
2023-05-21T04:11:16.321Z,6.35
2023-05-21T04:12:57.495Z,5.40
2023-05-21T04:14:33.335Z,5.82
2023-05-21T04:16:10.548Z,5.89
2023-05-21T04:17:45.363Z,5.37
2023-05-21T04:19:21.544Z,5.58
2023-05-21T04:20:48.540Z,5.65
2023-05-21T04:22:35.049Z,5.82
2023-05-21T04:23:59.940Z,5.11
2023-05-21T04:25:57.601Z,5.97
2023-05-21T04:27:43.083Z,5.78
2023-05-21T04:29:16.743Z,5.23
2023-05-21T04:30:50.411Z,5.70
2023-05-21T04:32:26.099Z,5.83
2023-05-21T04:34:11.243Z,5.46
2023-05-21T04:35:45.002Z,5.29
2023-05-21T04:37:39.139Z,5.85
2023-05-21T04:39:12.532Z,5.57
2023-05-21T04:40:45.696Z,5.59
2023-05-21T04:42:27.602Z,5.77
2023-05-21T04:44:13.888Z,5.36
2023-05-21T04:45:49.367Z,5.02
2023-05-21T04:47:23.097Z,5.39
2023-05-21T04:49:07.914Z,5.64
2023-05-21T04:50:45.422Z,5.15
2023-05-21T04:52:19.125Z,5.65
2023-05-21T04:53:55.716Z,5.37
2023-05-21T04:55:41.155Z,5.32
2023-05-21T04:57:26.324Z,5.79
2023-05-21T04:59:07.489Z,5.37
2023-05-21T05:00:40.916Z,5.93
2023-05-21T05:02:09.964Z,5.60
2023-05-21T05:03:55.379Z,5.28
2023-05-21T05:05:17.087Z,5.27
2023-05-21T05:06:38.797Z,5.59
2023-05-21T05:08:16.074Z,5.51
2023-05-21T05:10:01.008Z,5.73
2023-05-21T05:11:41.772Z,5.36
2023-05-21T05:13:19.420Z,5.20
2023-05-21T05:15:02.063Z,5.56
2023-05-21T05:16:26.292Z,5.50
2023-05-21T05:17:56.484Z,4.93
2023-05-21T05:19:32.913Z,5.19
2023-05-21T05:20:55.109Z,4.90
2023-05-21T05:22:40.405Z,4.79
2023-05-21T05:24:25.720Z,4.91
2023-05-21T05:25:59.332Z,5.06
2023-05-21T05:27:42.557Z,4.95
2023-05-21T05:29:36.242Z,5.29
2023-05-21T05:33:37.048Z,4.77
2023-05-21T05:35:10.767Z,4.88
2023-05-21T05:36:57.804Z,5.01
2023-05-21T05:38:43.157Z,5.39
2023-05-21T05:40:19.340Z,4.85
2023-05-21T05:42:14.225Z,5.14
2023-05-21T05:43:43.885Z,4.94
2023-05-21T05:45:30.079Z,4.78
2023-05-21T05:47:15.628Z,4.78
2023-05-21T05:48:51.404Z,4.95
2023-05-21T05:50:35.476Z,4.67
2023-05-21T05:52:25.073Z,4.93
2023-05-21T05:53:49.433Z,4.75
2023-05-21T05:55:25.115Z,4.88
2023-05-21T05:57:18.840Z,4.57
2023-05-21T05:59:04.226Z,4.64
2023-05-21T06:00:36.483Z,4.67
2023-05-21T06:02:02.035Z,4.95
2023-05-21T06:03:47.367Z,5.00
2023-05-21T06:05:23.980Z,4.86
2023-05-21T06:06:59.881Z,4.87
2023-05-21T06:08:37.354Z,4.78
2023-05-21T06:10:26.124Z,4.47
2023-05-21T06:12:01.746Z,4.92
2023-05-21T06:13:35.656Z,4.48
2023-05-21T06:15:20.736Z,4.71
2023-05-21T06:16:53.883Z,4.67
2023-05-21T06:18:32.293Z,4.53
2023-05-21T06:20:17.623Z,4.86
2023-05-21T06:21:51.424Z,4.36
2023-05-21T06:23:32.501Z,4.40
2023-05-21T06:25:08.265Z,4.03
2023-05-21T06:26:42.456Z,4.67
2023-05-21T06:28:15.908Z,4.34
2023-05-21T06:29:58.091Z,4.12
2023-05-21T06:31:22.363Z,4.20
2023-05-21T06:33:13.809Z,4.50
2023-05-21T06:34:45.331Z,4.20
2023-05-21T06:36:19.069Z,4.18
2023-05-21T06:37:52.622Z,4.26
2023-05-21T06:39:27.148Z,3.97
2023-05-21T06:41:04.036Z,4.09
2023-05-21T06:43:17.124Z,3.87
2023-05-21T06:44:57.700Z,4.11
2023-05-21T06:46:31.488Z,4.25
2023-05-21T06:48:04.346Z,4.18
2023-05-21T06:49:40.151Z,3.88
2023-05-21T06:51:15.984Z,3.90
2023-05-21T06:52:51.664Z,4.05
2023-05-21T06:54:26.933Z,4.04
2023-05-21T06:56:01.008Z,3.95
2023-05-21T06:57:54.776Z,3.84
2023-05-21T06:59:16.421Z,3.93
2023-05-21T07:00:57.944Z,4.30
2023-05-21T07:02:40.622Z,4.00
2023-05-21T07:04:13.936Z,4.25
2023-05-21T07:05:50.000Z,4.06
2023-05-21T07:07:27.574Z,4.22
2023-05-21T07:09:03.382Z,4.07
2023-05-21T07:10:39.391Z,4.34
2023-05-21T07:12:12.595Z,3.73
2023-05-21T07:13:57.693Z,3.78
2023-05-21T07:15:31.425Z,4.12
2023-05-21T07:17:12.214Z,3.99
2023-05-21T07:18:48.134Z,3.81
2023-05-21T07:20:21.347Z,3.99
2023-05-21T07:22:02.389Z,4.05
2023-05-21T07:23:47.703Z,4.19
2023-05-21T07:25:26.748Z,4.20
2023-05-21T07:26:55.389Z,3.81
2023-05-21T07:28:29.148Z,3.78
2023-05-21T07:30:04.962Z,3.84
2023-05-21T07:31:38.549Z,3.78
2023-05-21T07:33:24.340Z,3.67
2023-05-21T07:34:48.236Z,3.73
2023-05-21T07:36:12.901Z,3.97
2023-05-21T07:37:58.247Z,4.12
2023-05-21T07:39:31.461Z,4.34
2023-05-21T07:41:12.518Z,3.70
2023-05-21T07:42:58.610Z,3.69
2023-05-21T07:44:34.307Z,3.63
2023-05-21T07:45:59.374Z,3.52
2023-05-21T07:47:44.540Z,3.89
2023-05-21T07:49:16.319Z,3.73
2023-05-21T07:50:54.835Z,3.84
2023-05-21T07:52:28.444Z,3.81
2023-05-21T07:54:02.056Z,3.66
2023-05-21T07:55:50.645Z,3.56
2023-05-21T07:57:18.397Z,3.80
2023-05-21T07:58:59.513Z,3.74
2023-05-21T08:00:40.783Z,3.69
2023-05-21T08:02:26.095Z,3.74
2023-05-21T08:04:07.209Z,3.69
2023-05-21T08:05:57.458Z,3.62
2023-05-21T08:07:32.092Z,3.45
2023-05-21T08:09:13.360Z,3.67
2023-05-21T08:10:47.792Z,3.60
2023-05-21T08:12:18.707Z,3.71
2023-05-21T08:13:53.762Z,3.39
2023-05-21T08:15:38.781Z,3.23
2023-05-21T08:17:14.803Z,3.81
2023-05-21T08:18:48.329Z,3.76
2023-05-21T08:20:33.419Z,3.46
2023-05-21T08:22:06.837Z,3.34
2023-05-21T08:23:31.957Z,3.94
2023-05-21T08:25:17.577Z,3.67
2023-05-21T08:26:53.593Z,3.23
2023-05-21T08:28:29.303Z,3.13
2023-05-21T08:30:05.094Z,3.31
2023-05-21T08:31:50.996Z,3.50
2023-05-21T08:33:31.906Z,3.28
2023-05-21T08:34:56.383Z,3.27
2023-05-21T08:37:10.908Z,2.87
2023-05-21T08:39:27.936Z,3.11
2023-05-21T08:41:11.092Z,3.31
2023-05-21T08:43:00.049Z,2.88
2023-05-21T08:44:50.224Z,3.06
2023-05-21T08:46:36.524Z,3.24
2023-05-21T08:48:21.409Z,3.29
2023-05-21T08:49:57.333Z,2.90
2023-05-21T08:51:39.429Z,2.99
2023-05-21T08:53:28.325Z,3.33
2023-05-21T08:55:15.325Z,3.03
2023-05-21T08:56:49.216Z,2.89
2023-05-21T08:58:13.588Z,2.80
2023-05-21T08:59:43.155Z,2.82
2023-05-21T09:01:19.295Z,3.30
2023-05-21T09:02:50.004Z,3.46
2023-05-21T09:04:35.600Z,3.43
2023-05-21T09:06:23.870Z,3.22
2023-05-21T09:08:09.030Z,3.31
2023-05-21T09:10:05.059Z,3.58
2023-05-21T09:11:46.701Z,3.26
2023-05-21T09:13:22.117Z,2.73
2023-05-21T09:15:02.604Z,3.03
2023-05-21T09:18:35.051Z,3.13
2023-05-21T09:20:23.374Z,3.00
2023-05-21T09:21:55.201Z,2.83
2023-05-21T09:23:32.997Z,2.69
2023-05-21T09:25:07.950Z,3.41
2023-05-21T09:26:44.184Z,3.08
2023-05-21T09:28:29.227Z,2.59
2023-05-21T09:29:58.411Z,2.78
2023-05-21T09:31:31.916Z,3.01
2023-05-21T09:33:04.678Z,2.84
2023-05-21T09:34:33.962Z,2.97
2023-05-21T09:35:55.722Z,2.79
2023-05-21T09:37:32.226Z,3.04
2023-05-21T09:39:07.758Z,3.20
2023-05-21T09:40:39.976Z,3.26
2023-05-21T09:42:25.196Z,3.28
2023-05-21T09:43:57.268Z,3.21
2023-05-21T09:45:33.342Z,3.07
2023-05-21T09:47:06.752Z,2.97
2023-05-21T09:48:41.850Z,3.20
2023-05-21T09:50:22.199Z,2.98
2023-05-21T09:51:55.513Z,3.00
2023-05-21T09:53:17.304Z,3.20
2023-05-21T09:54:57.987Z,3.20
2023-05-21T09:56:22.424Z,3.13
2023-05-21T09:57:50.608Z,2.80
2023-05-21T09:59:31.713Z,2.90
2023-05-21T10:01:17.746Z,3.01
2023-05-21T10:02:50.938Z,2.79
2023-05-21T10:04:35.899Z,2.89
2023-05-21T10:06:11.788Z,3.02
2023-05-21T10:07:44.946Z,3.12
2023-05-21T10:09:30.053Z,3.18
2023-05-21T10:11:03.740Z,2.80
2023-05-21T10:12:37.140Z,3.02
2023-05-21T10:14:22.337Z,3.02
2023-05-21T10:15:58.177Z,2.96
2023-05-21T10:17:31.696Z,2.97
2023-05-21T10:19:16.845Z,2.87
2023-05-21T10:20:50.210Z,3.08
2023-05-21T10:22:25.710Z,2.93
2023-05-21T10:24:01.934Z,3.09
2023-05-21T10:25:35.763Z,2.75
2023-05-21T10:27:11.283Z,3.03
2023-05-21T10:28:45.567Z,3.27
2023-05-21T10:30:22.062Z,2.88
2023-05-21T10:31:55.882Z,2.98
2023-05-21T10:33:29.146Z,3.07
2023-05-21T10:34:55.704Z,3.18
2023-05-21T10:36:25.223Z,3.31
2023-05-21T10:37:49.631Z,2.85
2023-05-21T10:39:34.529Z,2.78
2023-05-21T10:41:04.968Z,3.04
2023-05-21T10:42:46.047Z,2.74
2023-05-21T10:44:31.569Z,3.05
2023-05-21T10:45:53.362Z,2.95
2023-05-21T10:47:29.146Z,2.71
2023-05-21T10:49:14.742Z,2.93
2023-05-21T10:50:56.185Z,3.05
2023-05-21T10:52:22.809Z,2.85
2023-05-21T10:53:58.874Z,3.02
2023-05-21T10:55:31.946Z,3.02
2023-05-21T10:57:05.011Z,2.57
2023-05-21T10:58:46.172Z,2.93
2023-05-21T11:00:28.614Z,2.92
2023-05-21T11:01:53.398Z,2.98
2023-05-21T11:03:20.421Z,3.27
2023-05-21T11:04:56.164Z,2.96
2023-05-21T11:06:29.932Z,2.95
2023-05-21T11:08:05.765Z,3.18
2023-05-21T11:09:50.914Z,3.46
2023-05-21T11:11:31.731Z,3.58
2023-05-21T11:13:05.951Z,2.94
2023-05-21T11:14:35.150Z,3.14
2023-05-21T11:16:11.104Z,3.28
2023-05-21T11:17:52.318Z,3.02
2023-05-21T11:19:26.040Z,3.05
2023-05-21T11:20:59.512Z,2.74
2023-05-21T11:22:25.737Z,2.98
2023-05-21T11:23:47.473Z,2.78
2023-05-21T11:25:20.805Z,2.90
2023-05-21T11:26:50.225Z,3.03
2023-05-21T11:28:11.862Z,2.85
2023-05-21T11:29:45.527Z,3.13
2023-05-21T11:31:19.516Z,2.74
2023-05-21T11:32:53.385Z,2.91
2023-05-21T11:34:29.357Z,3.09
2023-05-21T11:35:51.584Z,2.98
2023-05-21T11:39:15.703Z,2.82
2023-05-21T11:41:06.277Z,2.83
2023-05-21T11:42:42.370Z,3.44
2023-05-21T11:44:04.145Z,2.80
2023-05-21T11:45:26.282Z,2.42
2023-05-21T11:47:11.367Z,2.92
2023-05-21T11:48:46.692Z,2.52
2023-05-21T11:50:18.229Z,2.77
2023-05-21T11:51:44.468Z,2.88
2023-05-21T11:53:08.988Z,2.95
2023-05-21T11:54:45.666Z,2.88
2023-05-21T11:56:11.962Z,2.77
2023-05-21T11:57:48.063Z,3.17
2023-05-21T11:59:28.709Z,2.94
2023-05-21T12:01:13.960Z,2.81
2023-05-21T12:02:59.128Z,3.19
2023-05-21T12:04:32.502Z,3.47
2023-05-21T12:06:03.995Z,2.90
2023-05-21T12:07:44.537Z,2.96
2023-05-21T12:09:18.155Z,2.75
2023-05-21T12:10:47.380Z,3.19
2023-05-21T12:12:13.231Z,3.48
2023-05-21T12:13:49.907Z,2.91
2023-05-21T12:15:13.852Z,2.98
2023-05-21T12:16:47.368Z,3.18
2023-05-21T12:18:27.796Z,3.19
2023-05-21T12:20:13.741Z,3.10
2023-05-21T12:21:47.044Z,3.02
2023-05-21T12:23:20.336Z,3.32
2023-05-21T12:25:01.372Z,3.30
2023-05-21T12:26:37.333Z,3.24
2023-05-21T12:28:13.233Z,3.00
2023-05-21T12:29:46.383Z,3.10
2023-05-21T12:31:22.020Z,3.03
2023-05-21T12:32:58.150Z,3.05
2023-05-21T12:34:27.600Z,3.09
2023-05-21T12:36:15.029Z,3.28
2023-05-21T12:38:02.098Z,3.16
2023-05-21T12:39:37.033Z,2.93
2023-05-21T12:41:18.021Z,3.24
2023-05-21T12:42:51.857Z,2.66
2023-05-21T12:44:25.193Z,3.03
2023-05-21T12:45:47.364Z,2.94
2023-05-21T12:47:29.983Z,2.59
2023-05-21T12:49:23.728Z,3.38
2023-05-21T12:50:53.109Z,2.75
2023-05-21T12:52:27.316Z,3.21
2023-05-21T12:53:51.129Z,3.05
2023-05-21T12:55:25.589Z,3.10
2023-05-21T12:57:01.118Z,3.27
2023-05-21T12:58:37.324Z,3.19
2023-05-21T13:00:29.797Z,2.78
2023-05-21T13:01:53.734Z,3.03
2023-05-21T13:03:27.944Z,3.18
2023-05-21T13:04:51.665Z,2.92
2023-05-21T13:06:34.273Z,2.93
2023-05-21T13:08:19.137Z,3.01
2023-05-21T13:09:54.057Z,3.30
2023-05-21T13:11:34.772Z,2.93
2023-05-21T13:13:15.885Z,3.20
2023-05-21T13:14:56.619Z,3.17
2023-05-21T13:16:29.877Z,2.91
2023-05-21T13:18:12.022Z,3.12
2023-05-21T13:19:52.881Z,3.28
2023-05-21T13:21:28.643Z,2.79
2023-05-21T13:23:13.756Z,3.34
2023-05-21T13:24:40.104Z,3.04
2023-05-21T13:26:13.998Z,3.05
2023-05-21T13:27:38.021Z,3.33
2023-05-21T13:29:02.168Z,3.37
2023-05-21T13:30:43.047Z,3.38
2023-05-21T13:32:24.260Z,3.25
2023-05-21T13:34:10.106Z,2.96
2023-05-21T13:36:00.015Z,3.17
2023-05-21T13:37:45.834Z,3.57
2023-05-21T13:39:31.112Z,3.14
2023-05-21T13:41:06.988Z,3.25
2023-05-21T13:42:47.657Z,3.78
2023-05-21T13:44:09.367Z,3.16
2023-05-21T13:45:44.819Z,3.13
2023-05-21T13:47:29.976Z,2.90
2023-05-21T13:49:03.610Z,3.16
2023-05-21T13:50:52.577Z,3.15
2023-05-21T13:52:22.008Z,3.07
2023-05-21T13:53:46.116Z,3.25
2023-05-21T13:55:19.478Z,3.57
2023-05-21T13:56:55.152Z,3.62
2023-05-21T13:58:40.376Z,3.48
2023-05-21T14:00:09.891Z,3.52
2023-05-21T14:01:59.021Z,3.34
2023-05-21T14:03:44.230Z,3.18
2023-05-21T14:05:29.177Z,3.41
2023-05-21T14:06:53.533Z,3.45
2023-05-21T14:08:29.333Z,3.09
2023-05-21T14:10:02.802Z,3.11
2023-05-21T14:11:38.255Z,4.07
2023-05-21T14:13:18.464Z,3.70
2023-05-21T14:14:43.982Z,3.19
2023-05-21T14:16:28.860Z,3.35
2023-05-21T14:18:10.106Z,3.45
2023-05-21T14:19:43.812Z,2.99
2023-05-21T14:21:15.019Z,3.18
2023-05-21T14:22:46.260Z,3.53
2023-05-21T14:24:22.044Z,3.22
2023-05-21T14:26:07.222Z,3.30
2023-05-21T14:27:31.472Z,3.34
2023-05-21T14:29:18.656Z,3.08
2023-05-21T14:30:47.429Z,2.97
2023-05-21T14:32:32.500Z,3.20
2023-05-21T14:34:07.938Z,2.80
2023-05-21T14:35:32.356Z,2.90
2023-05-21T14:37:01.451Z,3.30
2023-05-21T14:38:28.997Z,2.76
2023-05-21T14:40:14.251Z,3.45
2023-05-21T14:41:43.415Z,3.07
2023-05-21T14:43:25.153Z,2.94
2023-05-21T14:45:18.647Z,3.04
2023-05-21T14:47:10.013Z,3.23
2023-05-21T14:48:55.807Z,3.31
2023-05-21T14:50:36.810Z,2.94
2023-05-21T14:52:01.155Z,2.95
2023-05-21T14:53:37.106Z,3.09
2023-05-21T14:55:25.682Z,3.19
2023-05-21T14:56:50.297Z,3.17
2023-05-21T14:58:14.953Z,3.08
2023-05-21T14:59:51.183Z,2.83
2023-05-21T15:01:28.299Z,3.13
2023-05-21T15:03:13.620Z,2.87
2023-05-21T15:04:59.024Z,3.14
2023-05-21T15:06:44.333Z,3.04
2023-05-21T15:08:19.619Z,3.33
2023-05-21T15:09:56.293Z,3.15
2023-05-21T15:11:22.632Z,2.98
2023-05-21T15:12:56.286Z,3.14
2023-05-21T15:14:20.773Z,3.34
2023-05-21T15:15:56.761Z,3.78
2023-05-21T15:17:30.098Z,3.05
2023-05-21T15:19:03.834Z,3.61
2023-05-21T15:20:44.608Z,3.44
2023-05-21T15:22:28.027Z,4.09
2023-05-21T15:23:51.543Z,4.71
2023-05-21T15:25:34.134Z,3.54
2023-05-21T15:27:21.153Z,3.46
2023-05-21T15:29:15.021Z,3.19
2023-05-21T15:30:39.271Z,3.30
2023-05-21T15:32:14.961Z,3.25
2023-05-21T15:34:05.031Z,3.36
2023-05-21T15:35:50.257Z,2.99
2023-05-21T15:37:33.074Z,3.17
2023-05-21T15:39:03.568Z,3.03
2023-05-21T15:40:49.539Z,2.97
2023-05-21T15:42:16.204Z,3.02
2023-05-21T15:43:40.485Z,3.03
2023-05-21T15:45:10.032Z,3.26
2023-05-21T15:46:46.085Z,3.28
2023-05-21T15:48:22.517Z,2.94
2023-05-21T15:50:07.520Z,3.10
2023-05-21T15:51:48.403Z,3.30
2023-05-21T15:53:10.652Z,3.46
2023-05-21T15:54:44.345Z,3.09
2023-05-21T15:56:17.543Z,3.20
2023-05-21T15:57:39.732Z,3.37
2023-05-21T15:59:28.592Z,3.42
2023-05-21T16:01:04.748Z,2.83
2023-05-21T16:02:46.619Z,3.04
2023-05-21T16:04:19.985Z,3.71
2023-05-21T16:05:53.721Z,3.71
2023-05-21T16:07:24.781Z,3.46
2023-05-21T16:09:13.155Z,3.83
2023-05-21T16:10:49.691Z,3.63
2023-05-21T16:12:18.871Z,3.69
2023-05-21T16:13:40.685Z,3.62
2023-05-21T16:15:02.754Z,3.55
2023-05-21T16:16:36.713Z,3.55
2023-05-21T16:18:08.140Z,3.72
2023-05-21T16:19:29.724Z,3.63
2023-05-21T16:20:54.137Z,3.42
2023-05-21T16:22:20.186Z,3.44
2023-05-21T16:23:53.854Z,3.54
2023-05-21T16:25:20.919Z,3.62
2023-05-21T16:27:05.716Z,3.79
2023-05-21T16:28:46.578Z,3.37
2023-05-21T16:30:27.413Z,3.64
2023-05-21T16:32:03.206Z,3.70
2023-05-21T16:33:48.106Z,3.55
2023-05-21T16:35:33.164Z,3.32
2023-05-21T16:37:09.252Z,3.35
2023-05-21T16:38:31.281Z,3.60
2023-05-21T16:40:04.999Z,3.68
2023-05-21T16:41:55.087Z,3.38
2023-05-21T16:43:35.677Z,3.84
2023-05-21T16:45:20.839Z,3.31
2023-05-21T16:46:56.461Z,3.65
2023-05-21T16:48:29.775Z,3.96
2023-05-21T16:50:10.572Z,3.87
2023-05-21T16:51:32.297Z,3.61
2023-05-21T16:53:07.510Z,3.72
2023-05-21T16:54:52.474Z,6.40
2023-05-21T16:56:39.180Z,4.21
2023-05-21T16:58:26.345Z,3.60
2023-05-21T17:00:03.009Z,3.91
2023-05-21T17:01:48.405Z,3.96
2023-05-21T17:03:10.206Z,3.61
2023-05-21T17:04:46.123Z,3.43
2023-05-21T17:06:17.383Z,3.94
2023-05-21T17:07:48.560Z,3.64
2023-05-21T17:09:24.225Z,3.84
2023-05-21T17:10:58.307Z,3.90
2023-05-21T17:12:32.043Z,3.75
2023-05-21T17:14:05.729Z,3.77
2023-05-21T17:15:39.659Z,3.59
2023-05-21T17:17:24.794Z,4.05
2023-05-21T17:19:08.058Z,3.67
2023-05-21T17:20:43.765Z,3.95
2023-05-21T17:22:17.423Z,3.84
2023-05-21T17:26:10.461Z,3.77
2023-05-21T17:27:41.647Z,3.73
2023-05-21T17:29:26.701Z,3.54
2023-05-21T17:31:03.245Z,4.09
2023-05-21T17:32:48.176Z,4.02
2023-05-21T17:34:36.377Z,3.41
2023-05-21T17:36:24.470Z,3.80
2023-05-21T17:38:06.828Z,3.69
2023-05-21T17:39:40.336Z,3.95
2023-05-21T17:41:02.204Z,3.69
2023-05-21T17:42:47.137Z,3.88
2023-05-21T17:44:33.324Z,3.71
2023-05-21T17:46:13.824Z,3.83
2023-05-21T17:48:07.196Z,3.96
2023-05-21T17:49:52.564Z,4.03
2023-05-21T17:51:38.076Z,3.88
2023-05-21T17:53:14.054Z,4.27
2023-05-21T17:54:35.991Z,3.91
2023-05-21T17:56:25.235Z,4.26
2023-05-21T17:57:59.078Z,4.02
2023-05-21T17:59:33.263Z,4.00
2023-05-21T18:01:06.772Z,4.37
2023-05-21T18:02:35.973Z,4.12
2023-05-21T18:04:10.800Z,3.66
2023-05-21T18:05:33.004Z,4.38
2023-05-21T18:07:02.516Z,3.75
2023-05-21T18:08:24.654Z,4.15
2023-05-21T18:10:09.885Z,4.08
2023-05-21T18:12:03.037Z,4.16
2023-05-21T18:13:36.801Z,4.17
2023-05-21T18:15:13.176Z,3.90
2023-05-21T18:16:58.135Z,4.13
2023-05-21T18:18:21.509Z,4.23
2023-05-21T18:19:54.884Z,4.47
2023-05-21T18:21:30.724Z,4.08
2023-05-21T18:23:15.769Z,4.53
2023-05-21T18:24:51.245Z,4.29
2023-05-21T18:26:32.817Z,4.43
2023-05-21T18:28:10.606Z,4.55
2023-05-21T18:29:51.195Z,4.67
2023-05-21T18:31:34.141Z,4.48
2023-05-21T18:33:04.726Z,4.80
2023-05-21T18:34:49.370Z,5.17
2023-05-21T18:36:22.284Z,4.88
2023-05-21T18:37:51.248Z,5.09
2023-05-21T18:39:13.038Z,4.70
2023-05-21T18:40:46.967Z,4.90
2023-05-21T18:42:32.156Z,4.46
2023-05-21T18:44:17.671Z,4.91
2023-05-21T18:45:49.248Z,4.58
2023-05-21T18:47:11.531Z,4.33
2023-05-21T18:49:05.083Z,4.58
2023-05-21T18:50:31.745Z,4.63
2023-05-21T18:52:07.803Z,4.93
2023-05-21T18:53:29.431Z,4.33
2023-05-21T18:57:22.181Z,5.14
2023-05-21T18:59:07.832Z,4.78
2023-05-21T19:00:43.310Z,4.59
2023-05-21T19:02:29.714Z,4.51
2023-05-21T19:03:53.942Z,4.95
2023-05-21T19:05:38.996Z,4.48
2023-05-21T19:07:20.128Z,4.76
2023-05-21T19:08:44.703Z,4.70
2023-05-21T19:10:06.699Z,5.15
2023-05-21T19:11:35.830Z,4.67
2023-05-21T19:13:03.390Z,4.70
2023-05-21T19:14:38.557Z,4.93
2023-05-21T19:16:11.425Z,5.12
2023-05-21T19:17:35.019Z,4.67
2023-05-21T19:19:08.082Z,4.77
2023-05-21T19:20:41.823Z,5.71
2023-05-21T19:22:29.094Z,5.55
2023-05-21T19:24:06.347Z,5.17
2023-05-21T19:25:35.639Z,5.26
2023-05-21T19:27:12.277Z,5.27
2023-05-21T19:28:52.946Z,5.67
2023-05-21T19:30:26.927Z,5.60
2023-05-21T19:31:54.921Z,5.51
2023-05-21T19:33:28.641Z,5.85
2023-05-21T19:35:11.106Z,5.71
2023-05-21T19:36:53.324Z,5.95
2023-05-21T19:38:27.923Z,6.26
2023-05-21T19:39:57.044Z,6.35
2023-05-21T19:41:22.975Z,5.73
2023-05-21T19:43:04.719Z,5.63
2023-05-21T19:44:40.827Z,5.67
2023-05-21T19:46:20.058Z,6.10
2023-05-21T19:47:46.209Z,5.64
2023-05-21T19:49:33.693Z,5.75
2023-05-21T19:51:10.408Z,5.54
2023-05-21T19:52:44.145Z,5.15
2023-05-21T19:54:18.657Z,5.46
2023-05-21T19:56:05.657Z,5.73
2023-05-21T19:57:39.795Z,5.57
2023-05-21T19:59:26.336Z,5.55
2023-05-21T20:00:57.788Z,5.51
2023-05-21T20:02:28.719Z,5.59
2023-05-21T20:04:02.721Z,4.98
2023-05-21T20:05:36.110Z,5.00
2023-05-21T20:06:58.011Z,5.06
2023-05-21T20:08:20.593Z,5.19
2023-05-21T20:09:56.140Z,4.96
2023-05-21T20:11:29.512Z,5.21
2023-05-21T20:13:03.108Z,5.39
2023-05-21T20:14:33.562Z,4.82
2023-05-21T20:16:16.130Z,4.50
2023-05-21T20:17:42.913Z,5.22
2023-05-21T20:19:22.570Z,5.00
2023-05-21T20:20:54.037Z,5.07
2023-05-21T20:22:30.804Z,4.82
2023-05-21T20:23:52.427Z,4.72
2023-05-21T20:25:28.197Z,5.05
2023-05-21T20:26:49.916Z,5.19
2023-05-21T20:28:14.085Z,5.00
2023-05-21T20:30:09.089Z,5.26
2023-05-21T20:32:03.107Z,4.84
2023-05-21T20:33:41.086Z,5.41
2023-05-21T20:35:05.327Z,5.54
2023-05-21T20:36:36.869Z,5.60
2023-05-21T20:38:06.233Z,5.19
2023-05-21T20:39:30.701Z,5.45
2023-05-21T20:40:54.825Z,5.88
2023-05-21T20:42:36.638Z,5.23
2023-05-21T20:44:10.118Z,5.28
2023-05-21T20:45:45.148Z,5.78
2023-05-21T20:47:11.910Z,5.22
2023-05-21T20:48:45.637Z,5.11
2023-05-21T20:50:07.347Z,5.82
2023-05-21T20:51:29.021Z,5.55
2023-05-21T20:53:03.826Z,6.06
2023-05-21T20:54:32.987Z,6.26
2023-05-21T20:56:02.287Z,5.88
2023-05-21T20:57:36.032Z,6.01
2023-05-21T20:58:58.416Z,5.48
2023-05-21T21:00:20.029Z,5.96
2023-05-21T21:01:51.516Z,5.61
2023-05-21T21:03:29.670Z,5.98
2023-05-21T21:05:03.031Z,5.80
2023-05-21T21:06:26.261Z,5.36
2023-05-21T21:07:58.185Z,5.41
2023-05-21T21:09:31.591Z,5.44
2023-05-21T21:10:53.521Z,5.05
2023-05-21T21:12:29.145Z,5.24
2023-05-21T21:14:09.775Z,4.75
2023-05-21T21:15:43.845Z,5.19
2023-05-21T21:17:17.511Z,5.21
2023-05-21T21:18:47.092Z,5.72
2023-05-21T21:20:11.501Z,6.00
2023-05-21T21:21:44.878Z,5.41
2023-05-21T21:23:08.975Z,5.64
2023-05-21T21:24:40.059Z,5.00
2023-05-21T21:26:01.991Z,5.58
2023-05-21T21:27:23.932Z,4.53
2023-05-21T21:29:09.196Z,4.98
2023-05-21T21:30:49.867Z,5.14
2023-05-21T21:32:23.008Z,5.03
2023-05-21T21:33:49.712Z,5.12
2023-05-21T21:35:16.255Z,5.00
2023-05-21T21:36:50.056Z,5.16